Flight Track Log - Related Links

Times and Time Zones

All times are in EDT time to prevent confusion due to time zone crossing. See the N6ZQ flight status page for this flight to view local times or setup timezone preferences in your user account.

Time Position Orientation Groundspeed Altitude Reporting Facility
EDT Latitude Longitude Course Direction KTS MPH feet Rate Location/Type
Tue 04:31:41 AM 38.4333 -77.5500 293° West 151 174 4,400  Level Potomac TRACON
Tue 04:32:41 AM 38.4500 -77.6000 293° West 152 175 5,400 1,050 Climbing Potomac TRACON
Tue 04:33:41 AM 38.4833 -77.6500 310° West 155 178 6,500 1,101 Climbing Potomac TRACON
Tue 04:34:30 AM 38.5011 -77.6875 301° West 158 182 7,400 944 Climbing Washington Center
Tue 04:35:29 AM 38.5275 -77.7281 310° West 163 188 8,200 900 Climbing Washington Center
Tue 04:36:30 AM 38.5517 -77.7711 306° West 163 188 9,200 878 Climbing Washington Center
Tue 04:37:32 AM 38.5761 -77.8144 306° West 156 180 10,000 756 Climbing Washington Center
Tue 04:38:29 AM 38.6003 -77.8550 307° West 151 174 10,700 610 Climbing Washington Center
Tue 04:39:30 AM 38.6225 -77.8875 311° West 151 174 11,200 590 Climbing Washington Center
Tue 04:40:31 AM 38.6486 -77.9361 305° West 151 174 11,900 353 Climbing Washington Center
Tue 04:41:29 AM 38.6792 -77.9850 309° West 156 180 11,900  Level Washington Center
Tue 04:42:29 AM 38.7092 -78.0367 307° West 169 194 11,900  Level Washington Center
Tue 04:43:29 AM 38.7414 -78.0908 307° West 182 209 11,900  Level Washington Center
Tue 04:44:30 AM 38.7717 -78.1453 306° West 182 209 11,900  Level Washington Center
Tue 04:45:31 AM 38.8039 -78.1969 309° West 182 209 11,900 50 Level Washington Center
Tue 04:46:29 AM 38.8342 -78.2486 307° West 182 209 12,000 50 Climbing Washington Center
Tue 04:47:31 AM 38.8661 -78.3058 306° West 187 215 12,000  Level Washington Center
Tue 04:48:31 AM 38.8964 -78.3550 308° West 187 215 12,000  Level Washington Center
Tue 04:49:31 AM 38.9283 -78.4094 307° West 187 215 12,000  Level Washington Center
Tue 04:50:29 AM 38.9606 -78.4642 307° West 187 215 12,000  Level Washington Center
Tue 04:51:29 AM 38.9906 -78.5161 307° West 187 215 12,000  Level Washington Center
Tue 04:52:29 AM 39.0206 -78.5681 307° West 187 215 12,000  Level Washington Center
Tue 04:53:29 AM 39.0525 -78.6200 308° West 182 209 12,000  Level Washington Center
Tue 04:54:29 AM 39.0825 -78.6747 305° West 182 209 12,000  Level Washington Center
Tue 04:55:56 AM 39.1264 -78.7461 308° West 182 209 12,000  Level Washington Center
Tue 04:56:53 AM 39.1561 -78.8036 304° West 182 209 12,000  Level Washington Center
Tue 04:57:53 AM 39.1881 -78.8533 310° West 182 209 12,000  Level Washington Center
Tue 05:00:04 AM 39.2556 -78.9717 306° West 184 212 12,000  Level Cleveland Center
Tue 05:01:04 AM 39.2875 -79.0264 307° West 185 213 12,000  Level Cleveland Center
Tue 05:02:05 AM 39.3175 -79.0803 306° West 185 213 12,000  Level Cleveland Center
Tue 05:03:05 AM 39.3492 -79.1314 309° West 184 212 12,000  Level Cleveland Center
Tue 05:04:06 AM 39.3792 -79.1869 305° West 186 214 12,000  Level Cleveland Center
Tue 05:05:06 AM 39.4097 -79.2403 307° West 186 214 12,000  Level Cleveland Center
Tue 05:06:07 AM 39.4403 -79.2939 306° West 185 213 12,000  Level Cleveland Center
Tue 05:07:07 AM 39.4711 -79.3456 308° West 183 211 12,000  Level Cleveland Center
Tue 05:08:08 AM 39.5003 -79.3997 305° West 183 211 12,000  Level Cleveland Center
Tue 05:09:09 AM 39.5308 -79.4536 306° West 183 211 12,000  Level Cleveland Center
Tue 05:10:09 AM 39.5597 -79.5064 305° West 183 211 12,000  Level Cleveland Center
Tue 05:11:10 AM 39.5894 -79.5578 307° West 183 211 12,000  Level Cleveland Center
Tue 05:12:10 AM 39.6183 -79.6092 306° West 182 209 12,000  Level Cleveland Center
Tue 05:13:11 AM 39.6469 -79.6597 306° West 177 204 12,000 -50 Level Cleveland Center
Tue 05:14:11 AM 39.6750 -79.7094 306° West 176 203 11,900  Descending Cleveland Center
Tue 05:15:12 AM 39.7047 -79.7622 306° West 176 203 12,000 49 Climbing Cleveland Center
Tue 05:16:13 AM 39.7336 -79.8133 306° West 176 203 12,000  Level Cleveland Center
Tue 05:17:13 AM 39.7617 -79.8647 305° West 176 203 12,000  Level Cleveland Center
Tue 05:18:14 AM 39.7900 -79.9153 306° West 176 203 12,000  Level Cleveland Center
Tue 05:19:14 AM 39.8244 -79.9761 306° West 175 201 12,000  Level Cleveland Center
Tue 05:20:15 AM 39.8522 -80.0261 306° West 172 198 12,000  Level Cleveland Center
Tue 05:21:16 AM 39.8800 -80.0769 305° West 172 198 12,000  Level Cleveland Center
Tue 05:22:16 AM 39.9083 -80.1283 306° West 173 199 12,000  Level Cleveland Center
Tue 05:23:17 AM 39.9364 -80.1792 306° West 173 199 12,000  Level Cleveland Center
Tue 05:24:17 AM 39.9647 -80.2308 306° West 173 199 12,000  Level Cleveland Center
Tue 05:25:18 AM 39.9936 -80.2825 306° West 174 200 12,000  Level Cleveland Center
Tue 05:26:19 AM 40.0225 -80.3350 306° West 174 200 12,000  Level Cleveland Center
Tue 05:27:19 AM 40.0511 -80.3878 305° West 175 201 12,000  Level Cleveland Center
Tue 05:28:20 AM 40.0803 -80.4397 306° West 177 204 12,000  Level Cleveland Center
Tue 05:29:20 AM 40.1086 -80.4919 305° West 177 204 12,000  Level Cleveland Center
Tue 05:30:21 AM 40.1369 -80.5450 305° West 177 204 12,000  Level Cleveland Center
Tue 05:31:22 AM 40.1656 -80.5961 306° West 177 204 12,000  Level Cleveland Center
Tue 05:32:22 AM 40.1944 -80.6475 306° West 177 204 12,000  Level Cleveland Center
Tue 05:33:23 AM 40.2222 -80.6989 305° West 176 203 12,000  Level Cleveland Center
Tue 05:34:23 AM 40.2500 -80.7508 305° West 175 201 12,000  Level Cleveland Center
Tue 05:35:24 AM 40.2772 -80.8028 304° West 175 201 12,000  Level Cleveland Center
Tue 05:36:25 AM 40.3053 -80.8544 305° West 174 200 12,000  Level Cleveland Center
Tue 05:37:25 AM 40.3328 -80.9050 306° West 174 200 12,000  Level Cleveland Center
Tue 05:38:26 AM 40.3611 -80.9569 306° West 174 200 12,000  Level Cleveland Center
Tue 05:39:26 AM 40.3894 -81.0089 306° West 173 199 12,000  Level Cleveland Center
Tue 05:40:27 AM 40.4156 -81.0594 304° West 173 199 12,000  Level Cleveland Center
Tue 05:41:28 AM 40.4425 -81.1111 304° West 173 199 12,000  Level Cleveland Center
Tue 05:42:28 AM 40.4711 -81.1608 307° West 172 198 12,000  Level Cleveland Center
Tue 05:43:29 AM 40.4986 -81.2114 306° West 171 197 12,000  Level Cleveland Center
Tue 05:44:30 AM 40.5256 -81.2650 303° West 175 201 12,000  Level Cleveland Center
Tue 05:45:30 AM 40.5589 -81.3275 305° West 175 201 12,000  Level Cleveland Center
Tue 05:46:31 AM 40.5875 -81.3806 305° West 174 200 12,000  Level Cleveland Center
Tue 05:47:32 AM 40.6119 -81.4275 304° West 175 201 12,000  Level Cleveland Center
Tue 05:48:32 AM 40.6403 -81.4811 305° West 175 201 12,000  Level Cleveland Center
Tue 05:49:33 AM 40.6697 -81.5353 306° West 177 204 12,000  Level Cleveland Center
Tue 05:50:33 AM 40.6975 -81.5897 304° West 177 204 12,000 50 Level Cleveland Center
Tue 05:51:34 AM 40.7272 -81.6492 303° West 179 206 12,100 82 Climbing Cleveland Center
Tue 05:51:46 AM 40.7344 -81.6614 308° West 179 206 12,100 -98 Level Cleveland Center
Tue 05:52:35 AM 40.7547 -81.6972 307° West 177 204 12,000  Descending Cleveland Center
Tue 05:52:47 AM 40.7631 -81.7156 301° West 177 204 12,100  Climbing Cleveland Center
Tue 05:53:35 AM 40.7836 -81.7525 306° West 178 205 12,000  Descending Cleveland Center
Tue 05:53:47 AM 40.7917 -81.7700 301° West 180 207 12,100  Climbing Cleveland Center
Tue 05:54:36 AM 40.8125 -81.8069 307° West 178 205 12,000 -55 Descending Cleveland Center
Tue 05:55:37 AM 40.8403 -81.8603 305° West 178 205 12,000 -50 Level Cleveland Center
Tue 05:56:37 AM 40.8697 -81.9150 305° West 178 205 11,900 -50 Descending Cleveland Center
Tue 05:57:38 AM 40.8978 -81.9694 304° West 178 205 11,900  Level Cleveland Center
Tue 05:58:39 AM 40.9264 -82.0253 304° West 178 205 11,900  Level Cleveland Center
Tue 05:59:40 AM 40.9550 -82.0800 305° West 178 205 11,900 50 Level Cleveland Center
Tue 06:00:40 AM 40.9836 -82.1344 305° West 179 206 12,000 50 Climbing Cleveland Center
Tue 06:01:41 AM 41.0117 -82.1900 304° West 179 206 12,000  Level Cleveland Center
Tue 06:02:42 AM 41.0400 -82.2444 305° West 179 206 12,000  Level Cleveland Center
Tue 06:03:42 AM 41.0692 -82.2997 305° West 179 206 12,000  Level Cleveland Center
Tue 06:04:43 AM 41.0967 -82.3547 304° West 179 206 12,000  Level Cleveland Center
Tue 06:05:44 AM 41.1258 -82.4106 305° West 179 206 12,000  Level Cleveland Center
Tue 06:06:45 AM 41.1539 -82.4647 305° West 179 206 12,000  Level Cleveland Center
Tue 06:07:46 AM 41.1811 -82.5189 304° West 178 205 12,000  Level Cleveland Center
Tue 06:08:46 AM 41.2094 -82.5728 305° West 178 205 12,000  Level Cleveland Center
Tue 06:09:47 AM 41.2375 -82.6275 304° West 177 204 12,000  Level Cleveland Center
Tue 06:10:48 AM 41.2653 -82.6831 304° West 178 205 12,000  Level Cleveland Center
Tue 06:11:49 AM 41.2922 -82.7369 304° West 177 204 12,000  Level Cleveland Center
Tue 06:12:50 AM 41.3208 -82.7911 305° West 177 204 12,000  Level Cleveland Center
Tue 06:13:51 AM 41.3467 -82.8453 302° West 176 203 12,000  Level Cleveland Center
Tue 06:14:52 AM 41.3761 -82.8986 306° West 175 201 12,000  Level Cleveland Center
Tue 06:15:53 AM 41.4031 -82.9531 303° West 176 203 12,000  Level Cleveland Center
Tue 06:16:54 AM 41.4294 -83.0083 302° West 175 201 12,000  Level Cleveland Center
Tue 06:17:55 AM 41.4578 -83.0628 305° West 175 201 12,000  Level Cleveland Center
Tue 06:18:56 AM 41.4853 -83.1169 304° West 175 201 12,000  Level Cleveland Center
Tue 06:19:57 AM 41.5125 -83.1719 303° West 175 201 12,000  Level Cleveland Center
Tue 06:20:58 AM 41.5422 -83.2314 304° West 175 201 12,000  Level Cleveland Center
Tue 06:21:59 AM 41.5694 -83.2844 304° West 175 201 12,000  Level Cleveland Center
Tue 06:23:00 AM 41.5967 -83.3400 303° West 176 203 12,000  Level Cleveland Center
Tue 06:24:01 AM 41.6236 -83.3942 304° West 176 203 12,000  Level Cleveland Center
Tue 06:25:02 AM 41.6508 -83.4489 304° West 176 203 12,000  Level Cleveland Center
Tue 06:26:04 AM 41.6792 -83.5031 305° West 176 203 12,000  Level Cleveland Center
Tue 06:26:56 AM 41.7111 -83.5578 308° West 178 205 12,000  Level Cleveland Center
Tue 06:27:33 AM 41.7317 -83.5889 312° West 178 205 12,000  Level Cleveland Center
Tue 06:28:06 AM 41.7425 -83.6058 311° West 177 204 12,000  Level Cleveland Center
Tue 06:28:27 AM 41.7575 -83.6317 308° West 178 205 12,000  Level Cleveland Center
Tue 06:29:07 AM 41.7797 -83.6675 310° West 177 204 12,000  Level Cleveland Center
Tue 06:30:08 AM 41.8111 -83.7183 310° West 177 204 12,000  Level Cleveland Center
Tue 06:31:09 AM 41.8422 -83.7700 309° West 177 204 12,000  Level Cleveland Center
Tue 06:32:11 AM 41.8736 -83.8219 309° West 178 205 12,000  Level Cleveland Center
Tue 06:33:12 AM 41.9050 -83.8747 309° West 178 205 12,000  Level Cleveland Center
Tue 06:34:13 AM 41.9372 -83.9261 310° West 178 205 12,000  Level Cleveland Center
Tue 06:35:15 AM 41.9692 -83.9781 310° West 179 206 12,000  Level Cleveland Center
Tue 06:36:16 AM 42.0000 -84.0303 308° West 179 206 12,000  Level Cleveland Center
Tue 06:37:17 AM 42.0306 -84.0822 308° West 179 206 12,000  Level Cleveland Center
Tue 06:38:19 AM 42.0625 -84.1336 310° West 179 206 12,000  Level Cleveland Center
Tue 06:39:20 AM 42.0925 -84.1864 307° West 179 206 12,000  Level Cleveland Center
Tue 06:40:22 AM 42.1311 -84.2481 310° West 179 206 12,000  Level Cleveland Center
Tue 06:41:23 AM 42.1611 -84.3000 308° West 178 205 12,000  Level Cleveland Center
Tue 06:42:25 AM 42.1897 -84.3494 308° West 173 199 12,000  Level Cleveland Center
Tue 06:43:26 AM 42.2200 -84.3994 309° West 172 198 12,000  Level Cleveland Center
Tue 06:44:28 AM 42.2497 -84.4492 309° West 171 197 12,000  Level Cleveland Center
Tue 06:45:29 AM 42.2800 -84.4992 309° West 171 197 12,000  Level Cleveland Center
Tue 06:46:31 AM 42.3100 -84.5506 308° West 172 198 12,000  Level Cleveland Center
Tue 06:47:33 AM 42.3403 -84.6000 310° West 172 198 12,000  Level Cleveland Center
Tue 06:48:27 AM 42.3708 -84.6528 308° West 173 199 12,000  Level Chicago Center
Tue 06:49:28 AM 42.4011 -84.7031 309° West 173 199 12,000  Level Chicago Center
Tue 06:50:29 AM 42.4306 -84.7544 308° West 173 199 12,000  Level Chicago Center
Tue 06:51:30 AM 42.4603 -84.8047 309° West 173 199 12,000  Level Chicago Center
Tue 06:52:30 AM 42.4892 -84.8550 308° West 172 198 12,000  Level Chicago Center
Tue 06:53:31 AM 42.5178 -84.9033 309° West 170 196 12,000  Level Chicago Center
Tue 06:54:32 AM 42.5478 -84.9533 309° West 169 194 12,000  Level Chicago Center
Tue 06:55:33 AM 42.5764 -85.0033 308° West 169 194 12,000  Level Chicago Center
Tue 06:56:33 AM 42.6056 -85.0536 308° West 169 194 12,000  Level Chicago Center
Tue 06:57:34 AM 42.6342 -85.1039 308° West 169 194 12,000  Level Chicago Center
Tue 06:58:35 AM 42.6628 -85.1519 309° West 167 192 12,000  Level Chicago Center
Tue 06:59:36 AM 42.6919 -85.2033 308° West 168 193 12,000  Level Chicago Center
Tue 07:00:37 AM 42.7261 -85.2622 308° West 168 193 12,000  Level Chicago Center
Tue 07:01:38 AM 42.7550 -85.3122 308° West 168 193 12,000  Level Chicago Center
Tue 07:02:38 AM 42.7833 -85.3608 308° West 167 192 12,000  Level Chicago Center
Tue 07:03:39 AM 42.8111 -85.4103 307° West 166 191 12,000  Level Chicago Center
Tue 07:04:40 AM 42.8394 -85.4583 309° West 165 190 12,000  Level Chicago Center
Tue 07:05:41 AM 42.8672 -85.5075 308° West 164 189 12,000  Level Chicago Center
Tue 07:06:42 AM 42.8947 -85.5564 308° West 164 189 12,000  Level Chicago Center
Tue 07:07:43 AM 42.9225 -85.6053 308° West 164 189 12,000  Level Chicago Center
Tue 07:08:45 AM 42.9503 -85.6542 308° West 164 189 12,000  Level Chicago Center
Tue 07:09:46 AM 42.9778 -85.7014 309° West 163 188 12,000  Level Chicago Center
Tue 07:10:47 AM 43.0047 -85.7478 308° West 161 185 12,000 -49 Level Chicago Center
Tue 07:11:48 AM 43.0383 -85.8075 308° West 161 185 11,900 -246 Descending Chicago Center
Tue 07:12:49 AM 43.0683 -85.8592 308° West 171 197 11,500 -341 Descending Chicago Center
Tue 07:13:51 AM 43.0969 -85.9125 306° West 174 200 11,200 -244 Descending Chicago Center
Tue 07:14:52 AM 43.1258 -85.9622 309° West 174 200 11,000 -295 Descending Chicago Center
Tue 07:15:53 AM 43.1542 -86.0128 308° West 174 200 10,600 -390 Descending Chicago Center
Tue 07:16:55 AM 43.1842 -86.0819 301° West 177 204 10,200 -293 Descending Chicago Center
Tue 07:17:56 AM 43.2036 -86.1403 295° West 176 203 10,000 -98 Descending Chicago Center
Tue 07:18:58 AM 43.2222 -86.1953 295° West 166 191 10,000  Level Chicago Center
Tue 07:19:59 AM 43.2406 -86.2489 295° West 160 184 10,000  Level Chicago Center
Tue 07:21:01 AM 43.2594 -86.3019 296° West 158 182 10,000  Level Chicago Center
Tue 07:22:02 AM 43.2767 -86.3550 294° West 156 180 10,000  Level Chicago Center
Tue 07:23:04 AM 43.2961 -86.4106 296° West 160 184 10,000  Level Chicago Center
Tue 07:24:05 AM 43.3136 -86.4644 294° West 159 183 10,000  Level Chicago Center
Tue 07:25:07 AM 43.3364 -86.5308 295° West 159 183 10,000  Level Chicago Center
Tue 07:26:09 AM 43.3544 -86.5856 294° West 159 183 10,000  Level Chicago Center
Tue 07:27:10 AM 43.3731 -86.6389 296° West 159 183 10,000  Level Chicago Center
Tue 07:28:12 AM 43.3908 -86.6944 294° West 159 183 10,000  Level Chicago Center
Tue 07:29:14 AM 43.4100 -86.7497 296° West 160 184 10,000  Level Chicago Center
Tue 07:30:15 AM 43.4278 -86.8056 294° West 161 185 10,000  Level Chicago Center
Tue 07:31:17 AM 43.4469 -86.8611 295° West 160 184 10,000  Level Chicago Center
Tue 07:32:19 AM 43.4697 -86.9283 295° West 161 185 10,000  Level Chicago Center
Tue 07:33:20 AM 43.4878 -86.9864 293° West 163 188 10,000  Level Chicago Center
Tue 07:34:22 AM 43.5072 -87.0425 296° West 163 188 10,000  Level Chicago Center
Tue 07:35:24 AM 43.5253 -87.0992 294° West 162 186 10,000  Level Chicago Center
Tue 07:36:26 AM 43.5444 -87.1556 295° West 162 186 10,000  Level Chicago Center
Tue 07:37:28 AM 43.5631 -87.2119 295° West 163 188 10,000  Level Chicago Center
Tue 07:38:29 AM 43.5850 -87.2803 294° West 163 188 10,000  Level Chicago Center
Tue 07:39:31 AM 43.6044 -87.3381 295° West 164 189 10,000  Level Chicago Center
Tue 07:40:33 AM 43.6206 -87.3908 293° West 164 189 10,000  Level Chicago Center
Tue 07:41:35 AM 43.6408 -87.4483 296° West 166 191 10,000 -290 Level Chicago Center
Tue 07:42:37 AM 43.6633 -87.5192 294° West 168 193 9,400 -532 Descending Chicago Center
Tue 07:43:39 AM 43.6819 -87.5786 293° West 168 193 8,900 -488 Descending Chicago Center
Tue 07:44:40 AM 43.7017 -87.6383 295° West 170 196 8,400 -537 Descending Chicago Center
Tue 07:45:42 AM 43.7247 -87.6931 300° West 167 192 7,800 -532 Descending Chicago Center
Tue 07:46:44 AM 43.7492 -87.7456 303° West 166 191 7,300 -484 Descending Chicago Center
Tue 07:47:46 AM 43.7733 -87.7992 302° West 164 189 6,800 -629 Descending Chicago Center
Tue 07:48:48 AM 43.8033 -87.8669 302° West 171 197 6,000 -823 Descending Chicago Center
Tue 07:49:50 AM 43.8286 -87.9222 302° West 171 197 5,100 -484 Descending Chicago Center
Tue 07:50:52 AM 43.8511 -87.9742 301° West 164 189 5,000 -48 Descending Chicago Center
Tue 07:51:54 AM 43.8722 -88.0217 302° West 152 175 5,000  Level Chicago Center
Tue 07:52:56 AM 43.8953 -88.0722 302° West 151 174 5,000  Level Chicago Center
Tue 07:53:57 AM 43.9181 -88.1239 301° West 153 176 5,000  Level Chicago Center
Tue 07:54:59 AM 43.9444 -88.1839 301° West 153 176 5,000  Level Chicago Center
Tue 07:56:01 AM 43.9669 -88.2339 302° West 153 176 5,000 -387 Level Chicago Center
Tue 07:57:03 AM 43.9875 -88.2908 297° West 163 188 4,200 -823 Descending Chicago Center
Tue 07:58:05 AM 43.9889 -88.3536 272° West 167 192 3,300 -823 Descending Chicago Center
Tue 07:59:07 AM 43.9906 -88.4167 272° West 167 192 2,500 -968 Descending Chicago Center
Tue 08:00:09 AM 43.9919 -88.4931 271° West 167 192 1,300 -726 Descending Chicago Center
Tue 08:01:11 AM 43.9925 -88.5383 271° West 139 160 1,000 -290 Descending Chicago Center
Tue 08:03:00 AM 43.9833 -88.5500 295° West  Level FlightAware Approximate

Login

Don't have an account? Register now (free) for customized features, flight alerts, and more!